sensor_id;sensor_type;location;lat;lon;timestamp;pressure;altitude;pressure_sealevel;temperature
67509;BMP280;54354;44.724;11.284;2024-02-26T00:01:36;100741.00;;;14.70
67509;BMP280;54354;44.724;11.284;2024-02-26T00:04:01;100743.34;;;14.68
67509;BMP280;54354;44.724;11.284;2024-02-26T00:06:28;100745.72;;;14.66
67509;BMP280;54354;44.724;11.284;2024-02-26T00:08:54;100750.72;;;14.64
67509;BMP280;54354;44.724;11.284;2024-02-26T00:11:19;100748.16;;;14.60
67509;BMP280;54354;44.724;11.284;2024-02-26T00:13:45;100747.28;;;14.63
67509;BMP280;54354;44.724;11.284;2024-02-26T00:16:10;100740.28;;;14.56
67509;BMP280;54354;44.724;11.284;2024-02-26T00:18:36;100748.63;;;14.58
67509;BMP280;54354;44.724;11.284;2024-02-26T00:21:02;100742.34;;;14.52
67509;BMP280;54354;44.724;11.284;2024-02-26T00:23:28;100745.53;;;14.47
67509;BMP280;54354;44.724;11.284;2024-02-26T00:25:53;100742.25;;;14.43
67509;BMP280;54354;44.724;11.284;2024-02-26T00:28:20;100734.69;;;14.42
67509;BMP280;54354;44.724;11.284;2024-02-26T00:30:46;100723.41;;;14.38
67509;BMP280;54354;44.724;11.284;2024-02-26T00:33:12;100716.28;;;14.35
67509;BMP280;54354;44.724;11.284;2024-02-26T00:35:37;100718.19;;;14.34
67509;BMP280;54354;44.724;11.284;2024-02-26T00:38:03;100712.13;;;14.34
67509;BMP280;54354;44.724;11.284;2024-02-26T00:40:29;100705.09;;;14.27
67509;BMP280;54354;44.724;11.284;2024-02-26T00:42:55;100699.16;;;14.23
67509;BMP280;54354;44.724;11.284;2024-02-26T00:45:20;100680.75;;;14.16
67509;BMP280;54354;44.724;11.284;2024-02-26T00:47:46;100677.75;;;14.14
67509;BMP280;54354;44.724;11.284;2024-02-26T00:50:13;100678.50;;;14.14
67509;BMP280;54354;44.724;11.284;2024-02-26T00:52:38;100674.66;;;14.15
67509;BMP280;54354;44.724;11.284;2024-02-26T00:55:04;100668.91;;;14.17
67509;BMP280;54354;44.724;11.284;2024-02-26T00:57:30;100664.44;;;14.14
67509;BMP280;54354;44.724;11.284;2024-02-26T00:59:55;100654.84;;;14.16
67509;BMP280;54354;44.724;11.284;2024-02-26T01:02:22;100652.06;;;14.20
67509;BMP280;54354;44.724;11.284;2024-02-26T01:04:47;100652.81;;;14.20
67509;BMP280;54354;44.724;11.284;2024-02-26T01:07:13;100662.81;;;14.29
67509;BMP280;54354;44.724;11.284;2024-02-26T01:09:38;100651.28;;;14.32
67509;BMP280;54354;44.724;11.284;2024-02-26T01:12:04;100648.50;;;14.36
67509;BMP280;54354;44.724;11.284;2024-02-26T01:14:29;100648.38;;;14.39
67509;BMP280;54354;44.724;11.284;2024-02-26T01:16:55;100654.03;;;14.41
67509;BMP280;54354;44.724;11.284;2024-02-26T01:19:21;100648.38;;;14.39
67509;BMP280;54354;44.724;11.284;2024-02-26T01:21:46;100646.16;;;14.38
67509;BMP280;54354;44.724;11.284;2024-02-26T01:24:12;100638.59;;;14.36
67509;BMP280;54354;44.724;11.284;2024-02-26T01:26:37;100630.50;;;14.40
67509;BMP280;54354;44.724;11.284;2024-02-26T01:29:03;100636.97;;;14.39
67509;BMP280;54354;44.724;11.284;2024-02-26T01:31:29;100625.91;;;14.40
67509;BMP280;54354;44.724;11.284;2024-02-26T01:33:54;100624.97;;;14.34
67509;BMP280;54354;44.724;11.284;2024-02-26T01:36:20;100629.88;;;14.36
67509;BMP280;54354;44.724;11.284;2024-02-26T01:38:46;100623.78;;;14.35
67509;BMP280;54354;44.724;11.284;2024-02-26T01:41:13;100611.66;;;14.34
67509;BMP280;54354;44.724;11.284;2024-02-26T01:43:39;100624.41;;;14.39
67509;BMP280;54354;44.724;11.284;2024-02-26T01:46:06;100616.09;;;14.37
67509;BMP280;54354;44.724;11.284;2024-02-26T01:48:31;100610.47;;;14.35
67509;BMP280;54354;44.724;11.284;2024-02-26T01:50:57;100617.19;;;14.40
67509;BMP280;54354;44.724;11.284;2024-02-26T01:53:23;100600.88;;;14.38
67509;BMP280;54354;44.724;11.284;2024-02-26T01:55:49;100611.06;;;14.39
67509;BMP280;54354;44.724;11.284;2024-02-26T01:58:15;100601.59;;;14.38
67509;BMP280;54354;44.724;11.284;2024-02-26T02:00:41;100599.81;;;14.35
67509;BMP280;54354;44.724;11.284;2024-02-26T02:03:07;100601.19;;;14.40
67509;BMP280;54354;44.724;11.284;2024-02-26T02:05:33;100583.66;;;14.29
67509;BMP280;54354;44.724;11.284;2024-02-26T02:08:00;100601.59;;;14.38
67509;BMP280;54354;44.724;11.284;2024-02-26T02:10:26;100580.84;;;14.33
67509;BMP280;54354;44.724;11.284;2024-02-26T02:12:52;100590.47;;;14.30
67509;BMP280;54354;44.724;11.284;2024-02-26T02:15:17;100593.22;;;14.27
67509;BMP280;54354;44.724;11.284;2024-02-26T02:17:43;100589.22;;;14.22
67509;BMP280;54354;44.724;11.284;2024-02-26T02:20:10;100577.91;;;14.18
67509;BMP280;54354;44.724;11.284;2024-02-26T02:22:40;100578.38;;;14.17
67509;BMP280;54354;44.724;11.284;2024-02-26T02:25:06;100576.97;;;14.12
67509;BMP280;54354;44.724;11.284;2024-02-26T02:27:31;100568.75;;;13.97
67509;BMP280;54354;44.724;11.284;2024-02-26T02:29:57;100577.34;;;14.01
67509;BMP280;54354;44.724;11.284;2024-02-26T02:32:24;100564.41;;;13.91
67509;BMP280;54354;44.724;11.284;2024-02-26T02:34:50;100568.66;;;13.88
67509;BMP280;54354;44.724;11.284;2024-02-26T02:37:16;100564.41;;;13.91
67509;BMP280;54354;44.724;11.284;2024-02-26T02:39:43;100569.81;;;13.87
67509;BMP280;54354;44.724;11.284;2024-02-26T02:42:08;100567.06;;;13.91
67509;BMP280;54354;44.724;11.284;2024-02-26T02:44:34;100560.13;;;13.93
67509;BMP280;54354;44.724;11.284;2024-02-26T02:46:59;100560.00;;;13.97
67509;BMP280;54354;44.724;11.284;2024-02-26T02:49:25;100547.56;;;13.94
67509;BMP280;54354;44.724;11.284;2024-02-26T02:51:51;100541.94;;;13.92
67509;BMP280;54354;44.724;11.284;2024-02-26T02:54:18;100555.88;;;13.96
67509;BMP280;54354;44.724;11.284;2024-02-26T02:56:44;100553.94;;;13.96
67509;BMP280;54354;44.724;11.284;2024-02-26T02:59:09;100557.34;;;13.97
67509;BMP280;54354;44.724;11.284;2024-02-26T03:01:35;100559.47;;;14.02
67509;BMP280;54354;44.724;11.284;2024-02-26T03:04:00;100554.56;;;14.00
67509;BMP280;54354;44.724;11.284;2024-02-26T03:06:26;100549.22;;;14.00
67509;BMP280;54354;44.724;11.284;2024-02-26T03:08:53;100551.16;;;14.00
67509;BMP280;54354;44.724;11.284;2024-02-26T03:11:20;100548.22;;;13.98
67509;BMP280;54354;44.724;11.284;2024-02-26T03:13:45;100548.06;;;14.01
67509;BMP280;54354;44.724;11.284;2024-02-26T03:16:11;100545.41;;;14.01
67509;BMP280;54354;44.724;11.284;2024-02-26T03:18:39;100553.81;;;14.00
67509;BMP280;54354;44.724;11.284;2024-02-26T03:21:06;100552.22;;;14.02
67509;BMP280;54354;44.724;11.284;2024-02-26T03:23:31;100554.88;;;14.02
67509;BMP280;54354;44.724;11.284;2024-02-26T03:26:03;100549.34;;;14.10
67509;BMP280;54354;44.724;11.284;2024-02-26T03:28:29;100547.81;;;14.09
67509;BMP280;54354;44.724;11.284;2024-02-26T03:30:55;100547.63;;;14.03
67509;BMP280;54354;44.724;11.284;2024-02-26T03:33:22;100552.66;;;14.01
67509;BMP280;54354;44.724;11.284;2024-02-26T03:35:48;100548.47;;;14.00
67509;BMP280;54354;44.724;11.284;2024-02-26T03:38:13;100545.31;;;14.05
67509;BMP280;54354;44.724;11.284;2024-02-26T03:40:39;100540.38;;;14.03
67509;BMP280;54354;44.724;11.284;2024-02-26T03:43:04;100551.16;;;14.00
67509;BMP280;54354;44.724;11.284;2024-02-26T03:45:32;100544.63;;;13.92
67509;BMP280;54354;44.724;11.284;2024-02-26T03:47:58;100536.63;;;13.92
67509;BMP280;54354;44.724;11.284;2024-02-26T03:50:23;100538.22;;;13.89
67509;BMP280;54354;44.724;11.284;2024-02-26T03:52:49;100534.81;;;13.89
67509;BMP280;54354;44.724;11.284;2024-02-26T03:55:14;100530.53;;;13.91
67509;BMP280;54354;44.724;11.284;2024-02-26T03:57:40;100531.16;;;13.95
67509;BMP280;54354;44.724;11.284;2024-02-26T04:00:06;100528.50;;;13.95
67509;BMP280;54354;44.724;11.284;2024-02-26T04:02:36;100526.91;;;13.98
67509;BMP280;54354;44.724;11.284;2024-02-26T04:05:01;100525.00;;;13.98
67509;BMP280;54354;44.724;11.284;2024-02-26T04:07:27;100525.75;;;13.99
67509;BMP280;54354;44.724;11.284;2024-02-26T04:09:52;100521.88;;;14.00
67509;BMP280;54354;44.724;11.284;2024-02-26T04:12:18;100525.00;;;13.98
67509;BMP280;54354;44.724;11.284;2024-02-26T04:14:44;100522.44;;;13.95
67509;BMP280;54354;44.724;11.284;2024-02-26T04:17:09;100522.44;;;13.95
67509;BMP280;54354;44.724;11.284;2024-02-26T04:19:36;100520.88;;;13.85
67509;BMP280;54354;44.724;11.284;2024-02-26T04:22:02;100530.59;;;13.78
67509;BMP280;54354;44.724;11.284;2024-02-26T04:24:27;100536.88;;;13.72
67509;BMP280;54354;44.724;11.284;2024-02-26T04:26:53;100538.81;;;13.71
67509;BMP280;54354;44.724;11.284;2024-02-26T04:29:18;100532.75;;;13.71
67509;BMP280;54354;44.724;11.284;2024-02-26T04:31:44;100528.16;;;13.71
67509;BMP280;54354;44.724;11.284;2024-02-26T04:34:11;100529.66;;;13.72
67509;BMP280;54354;44.724;11.284;2024-02-26T04:36:36;100524.31;;;13.72
67509;BMP280;54354;44.724;11.284;2024-02-26T04:39:02;100529.22;;;13.74
67509;BMP280;54354;44.724;11.284;2024-02-26T04:41:28;100527.28;;;13.74
67509;BMP280;54354;44.724;11.284;2024-02-26T04:43:53;100529.84;;;13.78
67509;BMP280;54354;44.724;11.284;2024-02-26T04:46:19;100519.19;;;13.78
67509;BMP280;54354;44.724;11.284;2024-02-26T04:48:45;100526.00;;;13.79
67509;BMP280;54354;44.724;11.284;2024-02-26T04:51:11;100531.63;;;13.81
67509;BMP280;54354;44.724;11.284;2024-02-26T04:53:37;100525.13;;;13.82
67509;BMP280;54354;44.724;11.284;2024-02-26T04:56:03;100524.28;;;13.85
67509;BMP280;54354;44.724;11.284;2024-02-26T04:58:28;100523.97;;;13.83
67509;BMP280;54354;44.724;11.284;2024-02-26T05:00:54;100520.38;;;13.77
67509;BMP280;54354;44.724;11.284;2024-02-26T05:03:21;100521.53;;;13.76
67509;BMP280;54354;44.724;11.284;2024-02-26T05:05:46;100521.97;;;13.74
67509;BMP280;54354;44.724;11.284;2024-02-26T05:08:12;100523.16;;;13.73
67509;BMP280;54354;44.724;11.284;2024-02-26T05:10:38;100530.09;;;13.71
67509;BMP280;54354;44.724;11.284;2024-02-26T05:13:06;100522.31;;;13.64
67509;BMP280;54354;44.724;11.284;2024-02-26T05:15:32;100529.13;;;13.65
67509;BMP280;54354;44.724;11.284;2024-02-26T05:17:58;100536.69;;;13.66
67509;BMP280;54354;44.724;11.284;2024-02-26T05:20:24;100526.88;;;13.63
67509;BMP280;54354;44.724;11.284;2024-02-26T05:22:50;100521.56;;;13.63
67509;BMP280;54354;44.724;11.284;2024-02-26T05:25:16;100511.66;;;13.64
67509;BMP280;54354;44.724;11.284;2024-02-26T05:27:43;100505.00;;;13.59
67509;BMP280;54354;44.724;11.284;2024-02-26T05:30:09;100515.50;;;13.63
67509;BMP280;54354;44.724;11.284;2024-02-26T05:32:35;100519.31;;;13.62
67509;BMP280;54354;44.724;11.284;2024-02-26T05:35:00;100515.41;;;13.66
67509;BMP280;54354;44.724;11.284;2024-02-26T05:37:26;100521.75;;;13.69
67509;BMP280;54354;44.724;11.284;2024-02-26T05:39:51;100528.91;;;13.72
67509;BMP280;54354;44.724;11.284;2024-02-26T05:42:17;100535.28;;;13.74
67509;BMP280;54354;44.724;11.284;2024-02-26T05:44:42;100545.06;;;13.77
67509;BMP280;54354;44.724;11.284;2024-02-26T05:47:08;100535.16;;;13.78
67509;BMP280;54354;44.724;11.284;2024-02-26T05:49:33;100537.69;;;13.82
67509;BMP280;54354;44.724;11.284;2024-02-26T05:51:59;100536.22;;;13.81
67509;BMP280;54354;44.724;11.284;2024-02-26T05:54:25;100536.94;;;13.81
67509;BMP280;54354;44.724;11.284;2024-02-26T05:56:50;100539.50;;;13.85
67509;BMP280;54354;44.724;11.284;2024-02-26T05:59:16;100543.22;;;13.87
67509;BMP280;54354;44.724;11.284;2024-02-26T06:01:41;100550.69;;;13.92
67509;BMP280;54354;44.724;11.284;2024-02-26T06:04:07;100559.59;;;13.98
67509;BMP280;54354;44.724;11.284;2024-02-26T06:06:32;100564.06;;;14.01
67509;BMP280;54354;44.724;11.284;2024-02-26T06:08:58;100571.59;;;14.03
67509;BMP280;54354;44.724;11.284;2024-02-26T06:11:23;100577.66;;;14.03
67509;BMP280;54354;44.724;11.284;2024-02-26T06:13:49;100587.91;;;14.05
67509;BMP280;54354;44.724;11.284;2024-02-26T06:16:15;100587.44;;;14.06
67509;BMP280;54354;44.724;11.284;2024-02-26T06:18:41;100578.28;;;14.08
67509;BMP280;54354;44.724;11.284;2024-02-26T06:21:09;100579.91;;;14.05
67509;BMP280;54354;44.724;11.284;2024-02-26T06:23:35;100586.91;;;14.12
67509;BMP280;54354;44.724;11.284;2024-02-26T06:26:01;100595.94;;;14.14
67509;BMP280;54354;44.724;11.284;2024-02-26T06:28:26;100606.50;;;14.18
67509;BMP280;54354;44.724;11.284;2024-02-26T06:30:55;100603.09;;;14.17
67509;BMP280;54354;44.724;11.284;2024-02-26T06:33:21;100603.81;;;14.18
67509;BMP280;54354;44.724;11.284;2024-02-26T06:35:47;100607.97;;;14.19
67509;BMP280;54354;44.724;11.284;2024-02-26T06:38:12;100604.13;;;14.20
67509;BMP280;54354;44.724;11.284;2024-02-26T06:40:39;100591.56;;;14.20
67509;BMP280;54354;44.724;11.284;2024-02-26T06:43:05;100607.44;;;14.24
67509;BMP280;54354;44.724;11.284;2024-02-26T06:45:31;100604.75;;;14.24
67509;BMP280;54354;44.724;11.284;2024-02-26T06:47:56;100608.47;;;14.26
67509;BMP280;54354;44.724;11.284;2024-02-26T06:50:22;100608.47;;;14.26
67509;BMP280;54354;44.724;11.284;2024-02-26T06:52:47;100608.91;;;14.25
67509;BMP280;54354;44.724;11.284;2024-02-26T06:55:13;100605.47;;;14.24
67509;BMP280;54354;44.724;11.284;2024-02-26T06:57:39;100614.34;;;14.21
67509;BMP280;54354;44.724;11.284;2024-02-26T07:00:05;100611.81;;;14.18
67509;BMP280;54354;44.724;11.284;2024-02-26T07:02:31;100604.69;;;14.15
67509;BMP280;54354;44.724;11.284;2024-02-26T07:04:57;100609.88;;;14.18
67509;BMP280;54354;44.724;11.284;2024-02-26T07:07:26;100610.34;;;14.17
67509;BMP280;54354;44.724;11.284;2024-02-26T07:09:51;100621.03;;;14.26
67509;BMP280;54354;44.724;11.284;2024-02-26T07:12:17;100613.38;;;14.28
67509;BMP280;54354;44.724;11.284;2024-02-26T07:14:43;100611.03;;;14.30
67509;BMP280;54354;44.724;11.284;2024-02-26T07:17:08;100618.56;;;14.31
67509;BMP280;54354;44.724;11.284;2024-02-26T07:19:34;100617.41;;;14.32
67509;BMP280;54354;44.724;11.284;2024-02-26T07:21:59;100630.31;;;14.34
67509;BMP280;54354;44.724;11.284;2024-02-26T07:24:28;100648.94;;;14.34
67509;BMP280;54354;44.724;11.284;2024-02-26T07:26:53;100633.72;;;14.35
67509;BMP280;54354;44.724;11.284;2024-02-26T07:29:22;100619.66;;;14.34
67509;BMP280;54354;44.724;11.284;2024-02-26T07:31:47;100627.63;;;14.34
67509;BMP280;54354;44.724;11.284;2024-02-26T07:34:13;100616.97;;;14.34
67509;BMP280;54354;44.724;11.284;2024-02-26T07:36:39;100608.25;;;14.34
67509;BMP280;54354;44.724;11.284;2024-02-26T07:39:05;100614.50;;;14.40
67509;BMP280;54354;44.724;11.284;2024-02-26T07:41:31;100612.88;;;14.42
67509;BMP280;54354;44.724;11.284;2024-02-26T07:43:56;100610.53;;;14.44
67509;BMP280;54354;44.724;11.284;2024-02-26T07:46:22;100617.78;;;14.44
67509;BMP280;54354;44.724;11.284;2024-02-26T07:48:48;100642.94;;;14.43
67509;BMP280;54354;44.724;11.284;2024-02-26T07:51:14;100640.72;;;14.41
67509;BMP280;54354;44.724;11.284;2024-02-26T07:53:40;100629.72;;;14.39
67509;BMP280;54354;44.724;11.284;2024-02-26T08:01:35;100625.66;;;14.47
67509;BMP280;54354;44.724;11.284;2024-02-26T08:04:04;100638.63;;;14.58
67509;BMP280;54354;44.724;11.284;2024-02-26T08:06:29;100634.34;;;14.61
67509;BMP280;54354;44.724;11.284;2024-02-26T08:08:55;100615.22;;;14.62
67509;BMP280;54354;44.724;11.284;2024-02-26T08:11:27;100623.66;;;14.61
67509;BMP280;54354;44.724;11.284;2024-02-26T08:17:52;100606.31;;;14.78
67509;BMP280;54354;44.724;11.284;2024-02-26T08:20:23;100620.09;;;14.76
67509;BMP280;54354;44.724;11.284;2024-02-26T08:22:49;100609.84;;;14.75
67509;BMP280;54354;44.724;11.284;2024-02-26T08:25:15;100620.09;;;14.76
67509;BMP280;54354;44.724;11.284;2024-02-26T08:28:27;100607.97;;;14.84
67509;BMP280;54354;44.724;11.284;2024-02-26T08:31:08;100598.06;;;14.85
67509;BMP280;54354;44.724;11.284;2024-02-26T08:33:36;100614.41;;;14.96
67509;BMP280;54354;44.724;11.284;2024-02-26T08:36:30;100597.53;;;14.99
67509;BMP280;54354;44.724;11.284;2024-02-26T08:42:39;100598.47;;;15.05
67509;BMP280;54354;44.724;11.284;2024-02-26T08:45:12;100593.97;;;14.93
67509;BMP280;54354;44.724;11.284;2024-02-26T08:47:41;100598.56;;;15.02
67509;BMP280;54354;44.724;11.284;2024-02-26T08:50:10;100597.41;;;15.03
67509;BMP280;54354;44.724;11.284;2024-02-26T08:52:40;100592.81;;;15.03
67509;BMP280;54354;44.724;11.284;2024-02-26T08:58:55;100586.03;;;15.11
67509;BMP280;54354;44.724;11.284;2024-02-26T09:05:03;100581.88;;;15.20
67509;BMP280;54354;44.724;11.284;2024-02-26T09:07:32;100582.78;;;15.17
67509;BMP280;54354;44.724;11.284;2024-02-26T09:10:07;100568.69;;;15.16
67509;BMP280;54354;44.724;11.284;2024-02-26T09:12:38;100568.56;;;15.20
67509;BMP280;54354;44.724;11.284;2024-02-26T09:15:06;100561.16;;;15.15
67509;BMP280;54354;44.724;11.284;2024-02-26T09:17:35;100558.19;;;15.12
67509;BMP280;54354;44.724;11.284;2024-02-26T09:20:04;100562.59;;;15.06
67509;BMP280;54354;44.724;11.284;2024-02-26T09:26:22;100539.16;;;15.78
67509;BMP280;54354;44.724;11.284;2024-02-26T09:29:12;100556.78;;;15.39
67509;BMP280;54354;44.724;11.284;2024-02-26T09:32:09;100555.84;;;15.24
67509;BMP280;54354;44.724;11.284;2024-02-26T09:38:20;100539.31;;;15.84
67509;BMP280;54354;44.724;11.284;2024-02-26T09:40:58;100537.78;;;15.37
67509;BMP280;54354;44.724;11.284;2024-02-26T09:43:36;100537.00;;;15.18
67509;BMP280;54354;44.724;11.284;2024-02-26T09:49:49;100543.59;;;15.35
67509;BMP280;54354;44.724;11.284;2024-02-26T09:52:19;100532.19;;;15.35
67509;BMP280;54354;44.724;11.284;2024-02-26T09:54:47;100524.75;;;15.39
67509;BMP280;54354;44.724;11.284;2024-02-26T10:00:59;100526.38;;;15.55
67509;BMP280;54354;44.724;11.284;2024-02-26T10:07:17;100533.66;;;15.73
67509;BMP280;54354;44.724;11.284;2024-02-26T10:13:27;100541.31;;;16.44
67509;BMP280;54354;44.724;11.284;2024-02-26T10:15:59;100549.22;;;16.11
67509;BMP280;54354;44.724;11.284;2024-02-26T10:18:27;100558.16;;;16.08
67509;BMP280;54354;44.724;11.284;2024-02-26T10:21:02;100538.22;;;16.09
67509;BMP280;54354;44.724;11.284;2024-02-26T10:23:35;100546.09;;;16.21
67509;BMP280;54354;44.724;11.284;2024-02-26T10:29:48;100535.75;;;16.57
67509;BMP280;54354;44.724;11.284;2024-02-26T10:35:58;100533.78;;;16.75
67509;BMP280;54354;44.724;11.284;2024-02-26T10:38:24;100540.00;;;16.82
67509;BMP280;54354;44.724;11.284;2024-02-26T10:40:53;100542.91;;;16.84
67509;BMP280;54354;44.724;11.284;2024-02-26T10:43:27;100519.44;;;16.88
67509;BMP280;54354;44.724;11.284;2024-02-26T10:46:01;100518.41;;;16.85
67509;BMP280;54354;44.724;11.284;2024-02-26T10:52:10;100546.31;;;17.41
67509;BMP280;54354;44.724;11.284;2024-02-26T10:58:27;100560.81;;;17.01
67509;BMP280;54354;44.724;11.284;2024-02-26T11:04:40;100561.09;;;17.03
67509;BMP280;54354;44.724;11.284;2024-02-26T11:07:44;100557.69;;;17.03
67509;BMP280;54354;44.724;11.284;2024-02-26T11:10:15;100554.31;;;17.02
67509;BMP280;54354;44.724;11.284;2024-02-26T11:12:44;100548.03;;;17.06
67509;BMP280;54354;44.724;11.284;2024-02-26T11:15:11;100545.19;;;17.09
67509;BMP280;54354;44.724;11.284;2024-02-26T11:17:38;100542.97;;;17.08
67509;BMP280;54354;44.724;11.284;2024-02-26T11:20:10;100542.38;;;17.03
67509;BMP280;54354;44.724;11.284;2024-02-26T11:22:42;100539.53;;;17.07
67509;BMP280;54354;44.724;11.284;2024-02-26T11:25:10;100543.72;;;17.08
67509;BMP280;54354;44.724;11.284;2024-02-26T11:28:01;100538.47;;;17.14
67509;BMP280;54354;44.724;11.284;2024-02-26T11:34:09;100538.88;;;17.21
67509;BMP280;54354;44.724;11.284;2024-02-26T11:36:36;100544.44;;;17.09
67509;BMP280;54354;44.724;11.284;2024-02-26T11:39:08;100541.94;;;17.05
67509;BMP280;54354;44.724;11.284;2024-02-26T11:41:38;100534.72;;;16.96
67509;BMP280;54354;44.724;11.284;2024-02-26T11:44:06;100536.06;;;16.92
67509;BMP280;54354;44.724;11.284;2024-02-26T11:46:38;100531.06;;;16.85
67509;BMP280;54354;44.724;11.284;2024-02-26T11:55:37;100519.09;;;16.95
67509;BMP280;54354;44.724;11.284;2024-02-26T11:58:08;100523.22;;;16.81
67509;BMP280;54354;44.724;11.284;2024-02-26T12:00:34;100524.97;;;16.84
67509;BMP280;54354;44.724;11.284;2024-02-26T12:03:06;100519.66;;;16.75
67509;BMP280;54354;44.724;11.284;2024-02-26T12:06:10;100522.56;;;16.86
67509;BMP280;54354;44.724;11.284;2024-02-26T12:12:17;100496.91;;;17.27
67509;BMP280;54354;44.724;11.284;2024-02-26T12:14:53;100494.41;;;16.76
67509;BMP280;54354;44.724;11.284;2024-02-26T12:17:27;100495.34;;;16.64
67509;BMP280;54354;44.724;11.284;2024-02-26T12:19:54;100503.94;;;16.68
67509;BMP280;54354;44.724;11.284;2024-02-26T12:22:24;100490.44;;;16.62
67509;BMP280;54354;44.724;11.284;2024-02-26T12:24:58;100494.94;;;16.56
67509;BMP280;54354;44.724;11.284;2024-02-26T12:28:41;100493.97;;;16.68
67509;BMP280;54354;44.724;11.284;2024-02-26T12:31:35;100482.25;;;16.66
67509;BMP280;54354;44.724;11.284;2024-02-26T12:34:28;100487.47;;;16.69
67509;BMP280;54354;44.724;11.284;2024-02-26T12:36:58;100489.13;;;16.67
67509;BMP280;54354;44.724;11.284;2024-02-26T12:39:23;100484.19;;;16.65
67509;BMP280;54354;44.724;11.284;2024-02-26T12:41:52;100482.38;;;16.71
67509;BMP280;54354;44.724;11.284;2024-02-26T12:44:24;100482.09;;;16.69
67509;BMP280;54354;44.724;11.284;2024-02-26T12:46:50;100485.53;;;16.70
67509;BMP280;54354;44.724;11.284;2024-02-26T12:49:16;100479.09;;;16.76
67509;BMP280;54354;44.724;11.284;2024-02-26T12:51:51;100472.03;;;16.88
67509;BMP280;54354;44.724;11.284;2024-02-26T12:54:17;100463.66;;;16.95
67509;BMP280;54354;44.724;11.284;2024-02-26T12:56:42;100469.31;;;16.97
67509;BMP280;54354;44.724;11.284;2024-02-26T12:59:08;100470.41;;;16.91
67509;BMP280;54354;44.724;11.284;2024-02-26T13:01:38;100470.47;;;16.82
67509;BMP280;54354;44.724;11.284;2024-02-26T13:04:31;100458.09;;;16.84
67509;BMP280;54354;44.724;11.284;2024-02-26T13:10:40;100454.66;;;17.46
67509;BMP280;54354;44.724;11.284;2024-02-26T13:13:06;100462.09;;;17.13
67509;BMP280;54354;44.724;11.284;2024-02-26T13:15:32;100470.44;;;17.06
67509;BMP280;54354;44.724;11.284;2024-02-26T13:17:58;100466.84;;;17.09
67509;BMP280;54354;44.724;11.284;2024-02-26T13:21:20;100465.59;;;17.19
67509;BMP280;54354;44.724;11.284;2024-02-26T13:27:33;100461.16;;;17.16
67509;BMP280;54354;44.724;11.284;2024-02-26T13:30:12;100453.38;;;17.03
67509;BMP280;54354;44.724;11.284;2024-02-26T13:32:44;100456.22;;;16.99
67509;BMP280;54354;44.724;11.284;2024-02-26T13:38:56;100444.13;;;17.04
67509;BMP280;54354;44.724;11.284;2024-02-26T13:41:33;100435.06;;;16.87
67509;BMP280;54354;44.724;11.284;2024-02-26T13:44:51;100447.47;;;16.99
67509;BMP280;54354;44.724;11.284;2024-02-26T13:51:02;100430.94;;;17.00
67509;BMP280;54354;44.724;11.284;2024-02-26T13:57:20;100421.19;;;16.97
67509;BMP280;54354;44.724;11.284;2024-02-26T14:03:29;100425.06;;;16.96
67509;BMP280;54354;44.724;11.284;2024-02-26T14:09:38;100405.00;;;17.60
67509;BMP280;54354;44.724;11.284;2024-02-26T14:12:16;100401.97;;;17.23
67509;BMP280;54354;44.724;11.284;2024-02-26T14:14:42;100396.94;;;17.16
67509;BMP280;54354;44.724;11.284;2024-02-26T14:17:25;100393.44;;;17.10
67509;BMP280;54354;44.724;11.284;2024-02-26T14:20:15;100382.84;;;17.15
67509;BMP280;54354;44.724;11.284;2024-02-26T14:22:47;100396.41;;;17.12
67509;BMP280;54354;44.724;11.284;2024-02-26T14:25:24;100399.09;;;17.12
67509;BMP280;54354;44.724;11.284;2024-02-26T14:28:05;100385.50;;;17.15
67509;BMP280;54354;44.724;11.284;2024-02-26T14:30:33;100377.22;;;17.13
67509;BMP280;54354;44.724;11.284;2024-02-26T14:33:25;100373.16;;;17.18
67509;BMP280;54354;44.724;11.284;2024-02-26T14:39:37;100386.16;;;17.25
67509;BMP280;54354;44.724;11.284;2024-02-26T14:42:06;100391.28;;;17.23
67509;BMP280;54354;44.724;11.284;2024-02-26T14:44:37;100389.75;;;17.22
67509;BMP280;54354;44.724;11.284;2024-02-26T14:47:06;100382.63;;;17.19
67509;BMP280;54354;44.724;11.284;2024-02-26T14:49:38;100383.25;;;17.23
67509;BMP280;54354;44.724;11.284;2024-02-26T14:52:09;100385.91;;;17.23
67509;BMP280;54354;44.724;11.284;2024-02-26T14:54:38;100385.00;;;17.26
67509;BMP280;54354;44.724;11.284;2024-02-26T15:00:47;100388.19;;;17.89
67509;BMP280;54354;44.724;11.284;2024-02-26T15:03:18;100390.63;;;17.43
67509;BMP280;54354;44.724;11.284;2024-02-26T15:09:06;100381.34;;;17.14
67509;BMP280;54354;44.724;11.284;2024-02-26T15:12:12;100395.13;;;17.22
67509;BMP280;54354;44.724;11.284;2024-02-26T15:14:37;100404.25;;;17.15
67509;BMP280;54354;44.724;11.284;2024-02-26T15:17:33;100378.41;;;17.12
67509;BMP280;54354;44.724;11.284;2024-02-26T15:23:43;100371.28;;;17.09
67509;BMP280;54354;44.724;11.284;2024-02-26T15:26:13;100370.06;;;16.95
67509;BMP280;54354;44.724;11.284;2024-02-26T15:28:51;100374.97;;;16.97
67509;BMP280;54354;44.724;11.284;2024-02-26T15:34:58;100388.38;;;17.12
67509;BMP280;54354;44.724;11.284;2024-02-26T15:41:12;100396.09;;;17.10
67509;BMP280;54354;44.724;11.284;2024-02-26T15:47:19;100402.31;;;17.75
67509;BMP280;54354;44.724;11.284;2024-02-26T15:49:45;100413.59;;;17.35
67509;BMP280;54354;44.724;11.284;2024-02-26T15:52:14;100408.38;;;17.16
67509;BMP280;54354;44.724;11.284;2024-02-26T15:54:42;100397.50;;;17.05
67509;BMP280;54354;44.724;11.284;2024-02-26T15:57:17;100396.53;;;16.93
67509;BMP280;54354;44.724;11.284;2024-02-26T16:03:26;100408.78;;;17.53
67509;BMP280;54354;44.724;11.284;2024-02-26T16:09:36;100399.22;;;16.93